Time;durP1;ratioP1;P1;durP2;ratioP2;P2;SDS_P1;SDS_P2;PMS_P1;PMS_P2;Temp;Humidity;BMP_temperature;BMP_pressure;BME280_temperature;BME280_humidity;BME280_pressure;Samples;Min_cycle;Max_cycle;Signal;HPM_P1;HPM_P2
2022/08/11 00:00:45;;;;;;;6.38;2.97;;;20.90;99.90;;;;;;5043911;28;25057;-73
2022/08/11 00:03:12;;;;;;;6.40;3.17;;;20.90;99.90;;;;;;5044355;28;25058;-71
2022/08/11 00:05:50;;;;;;;4.15;3.00;;;20.70;99.90;;;;;;5035594;28;25046;-71
2022/08/11 00:08:23;;;;;;;6.18;4.07;;;20.60;99.90;;;;;;5046091;28;25101;-74
2022/08/11 00:11:00;;;;;;;4.75;3.78;;;20.60;99.90;;;;;;5045693;28;25092;-72
2022/08/11 00:13:44;;;;;;;6.28;3.00;;;20.60;99.90;;;;;;5052583;28;25084;-72
2022/08/11 00:16:18;;;;;;;7.82;3.50;;;20.50;99.90;;;;;;5058148;28;25101;-73
2022/08/11 00:18:47;;;;;;;3.95;3.20;;;20.40;99.90;;;;;;5053321;28;25174;-73
2022/08/11 00:21:13;;;;;;;6.93;3.28;;;20.30;99.90;;;;;;5033558;28;25082;-73
2022/08/11 00:24:02;;;;;;;5.25;3.30;;;20.30;99.90;;;;;;5038691;28;25162;-72
2022/08/11 00:26:29;;;;;;;7.18;3.22;;;20.20;99.90;;;;;;5045535;28;25074;-72
2022/08/11 00:28:55;;;;;;;7.47;3.13;;;20.30;99.90;;;;;;5036866;28;25054;-72
2022/08/11 00:31:27;;;;;;;7.85;3.75;;;20.20;99.90;;;;;;5029104;28;25141;-73
2022/08/11 00:33:54;;;;;;;5.03;3.20;;;20.30;99.90;;;;;;5032564;28;25076;-72
2022/08/11 00:36:26;;;;;;;5.35;3.22;;;20.30;99.90;;;;;;5043671;28;25066;-74
2022/08/11 00:38:54;;;;;;;5.75;3.53;;;20.30;99.90;;;;;;5038225;28;25074;-72
2022/08/11 00:41:19;;;;;;;6.53;3.58;;;20.20;99.90;;;;;;5034412;28;25143;-72
2022/08/11 00:44:07;;;;;;;3.72;3.38;;;20.10;99.90;;;;;;5037591;28;25052;-73
2022/08/11 00:46:58;;;;;;;4.47;3.42;;;20.10;99.90;;;;;;5040535;28;25070;-74
2022/08/11 00:49:38;;;;;;;6.15;3.80;;;20.00;99.90;;;;;;5035873;28;25110;-73
2022/08/11 00:52:09;;;;;;;11.05;3.55;;;20.00;99.90;;;;;;5036437;28;25078;-72
2022/08/11 00:54:38;;;;;;;5.50;3.47;;;20.00;99.90;;;;;;5037276;28;25152;-72
2022/08/11 00:57:24;;;;;;;5.18;3.13;;;19.90;99.90;;;;;;5042101;28;25094;-73
2022/08/11 01:00:13;;;;;;;6.75;3.60;;;19.90;99.90;;;;;;5033009;28;25062;-71
2022/08/11 01:03:25;;;;;;;5.72;3.20;;;19.90;99.90;;;;;;5033832;28;25069;-73
2022/08/11 01:06:01;;;;;;;11.70;3.35;;;19.90;99.90;;;;;;5037524;28;25172;-73
2022/08/11 01:08:39;;;;;;;7.30;3.20;;;19.80;99.90;;;;;;5035968;28;25082;-72
2022/08/11 01:11:19;;;;;;;4.20;3.85;;;19.80;99.90;;;;;;5034763;28;25062;-71
2022/08/11 01:14:16;;;;;;;6.93;3.35;;;19.80;99.90;;;;;;5039862;28;25084;-72
2022/08/11 01:17:20;;;;;;;7.63;3.72;;;19.80;99.90;;;;;;5040394;28;25051;-72
2022/08/11 01:19:57;;;;;;;7.60;4.50;;;19.80;99.90;;;;;;5040005;28;25141;-72
2022/08/11 01:22:58;;;;;;;4.65;3.38;;;19.70;99.90;;;;;;5034712;28;25109;-73
2022/08/11 01:26:03;;;;;;;5.05;3.92;;;19.60;99.90;;;;;;5040521;28;25077;-73
2022/08/11 01:28:50;;;;;;;6.50;4.03;;;19.60;99.90;;;;;;5034431;28;25124;-73
2022/08/11 01:31:40;;;;;;;6.30;4.00;;;19.70;99.90;;;;;;5032302;28;25059;-72
2022/08/11 01:34:20;;;;;;;10.15;4.00;;;19.60;99.90;;;;;;5041821;28;25048;-74
2022/08/11 01:37:06;;;;;;;7.85;3.42;;;19.60;99.90;;;;;;5037081;28;25059;-73
2022/08/11 01:40:07;;;;;;;7.97;3.60;;;19.60;99.90;;;;;;5038474;28;25063;-73
2022/08/11 01:45:54;;;;;;;5.32;3.60;;;19.50;99.90;;;;;;5045024;28;25072;-73
2022/08/11 01:48:41;;;;;;;7.30;3.80;;;19.50;99.90;;;;;;5042700;28;25133;-73
2022/08/11 01:51:37;;;;;;;5.90;3.42;;;19.50;99.90;;;;;;5044149;28;25076;-73
2022/08/11 01:54:18;;;;;;;7.63;4.30;;;19.60;99.90;;;;;;5047277;28;25082;-72
2022/08/11 01:56:59;;;;;;;6.00;3.53;;;19.50;99.90;;;;;;5043678;28;25069;-73
2022/08/11 01:59:47;;;;;;;6.30;3.50;;;19.50;99.90;;;;;;5038629;28;25056;-74
2022/08/11 02:02:46;;;;;;;8.45;4.18;;;19.40;99.90;;;;;;5048152;28;25092;-73
2022/08/11 02:05:46;;;;;;;4.63;4.13;;;19.40;99.90;;;;;;5044924;28;25078;-74
2022/08/11 02:08:41;;;;;;;7.30;3.95;;;19.30;99.90;;;;;;5042409;28;25083;-73
2022/08/11 02:11:32;;;;;;;5.18;3.83;;;19.30;99.90;;;;;;5044856;28;25145;-73
2022/08/11 02:14:19;;;;;;;5.25;3.83;;;19.30;99.90;;;;;;5044676;28;25063;-73
2022/08/11 02:16:45;;;;;;;10.43;3.97;;;19.30;99.90;;;;;;5052766;28;25058;-74
2022/08/11 02:25:28;;;;;;;7.28;4.75;;;19.20;99.90;;;;;;5039710;28;25069;-74
2022/08/11 02:28:13;;;;;;;7.17;3.80;;;19.10;99.90;;;;;;5035258;28;25146;-73
2022/08/11 02:33:21;;;;;;;7.07;4.45;;;19.00;99.90;;;;;;5010610;28;25090;-74
2022/08/11 02:33:42;;;;;;;8.55;4.22;;;19.00;99.90;;;;;;5035295;28;25058;-74
2022/08/11 02:36:07;;;;;;;4.53;3.97;;;19.00;99.90;;;;;;5033479;28;25110;-73
2022/08/11 02:38:50;;;;;;;8.10;4.10;;;19.10;99.90;;;;;;5036547;28;25093;-73
2022/08/11 02:44:29;;;;;;;8.50;4.15;;;19.00;99.90;;;;;;5035597;28;25073;-73
2022/08/11 02:47:13;;;;;;;7.22;4.07;;;19.00;99.90;;;;;;5045036;28;25078;-72
2022/08/11 02:50:06;;;;;;;10.40;4.05;;;18.90;99.90;;;;;;5044209;28;25083;-73
2022/08/11 02:53:05;;;;;;;7.00;3.95;;;19.00;99.90;;;;;;5042620;28;25065;-73
2022/08/11 02:56:10;;;;;;;8.30;4.20;;;19.00;99.90;;;;;;5039351;28;25065;-73
2022/08/11 03:01:59;;;;;;;6.15;3.85;;;19.00;99.90;;;;;;5051104;28;25079;-72
2022/08/11 03:05:01;;;;;;;7.03;4.30;;;18.90;99.90;;;;;;5046317;28;25128;-74
2022/08/11 03:07:39;;;;;;;6.00;4.60;;;18.90;99.90;;;;;;5044107;28;25063;-73
2022/08/11 03:10:17;;;;;;;4.55;4.10;;;18.90;99.90;;;;;;5042076;28;25092;-73
2022/08/11 03:19:09;;;;;;;8.85;3.90;;;19.00;99.90;;;;;;5045198;28;25087;-72
2022/08/11 03:22:03;;;;;;;6.18;4.25;;;19.00;99.90;;;;;;5041904;28;25247;-73
2022/08/11 03:24:47;;;;;;;6.70;4.28;;;19.00;99.90;;;;;;5044997;28;25047;-74
2022/08/11 03:27:19;;;;;;;6.30;4.00;;;19.00;99.90;;;;;;5050592;28;25076;-73
2022/08/11 03:30:05;;;;;;;6.75;3.78;;;19.10;99.90;;;;;;5059246;28;25084;-73
2022/08/11 03:36:08;;;;;;;7.35;3.63;;;19.10;99.90;;;;;;5048223;28;25075;-73
2022/08/11 03:38:53;;;;;;;10.15;4.15;;;19.00;99.90;;;;;;5046243;28;25059;-73
2022/08/11 03:42:04;;;;;;;6.18;4.03;;;19.00;99.90;;;;;;5035798;28;25117;-74
2022/08/11 03:45:06;;;;;;;7.43;3.58;;;19.10;99.90;;;;;;4982903;28;25072;-73
2022/08/11 03:47:37;;;;;;;6.80;4.07;;;19.10;99.90;;;;;;5049353;28;25061;-73
2022/08/11 03:50:18;;;;;;;7.05;4.57;;;19.10;99.90;;;;;;5048439;28;25122;-73
2022/08/11 03:53:06;;;;;;;7.33;3.90;;;19.10;99.90;;;;;;5045055;28;25085;-73
2022/08/11 03:56:11;;;;;;;11.13;4.78;;;19.20;99.90;;;;;;5042850;28;25169;-72
2022/08/11 03:58:55;;;;;;;5.72;3.92;;;19.10;99.90;;;;;;5050365;28;25080;-74
2022/08/11 04:01:39;;;;;;;7.60;4.13;;;19.10;99.90;;;;;;5035533;28;25091;-74
2022/08/11 04:04:14;;;;;;;6.50;3.95;;;19.00;99.90;;;;;;5035150;28;25117;-73
2022/08/11 04:07:14;;;;;;;12.00;4.85;;;19.00;99.90;;;;;;5032259;28;25112;-73
2022/08/11 04:10:07;;;;;;;9.18;4.43;;;19.00;99.90;;;;;;5038908;28;25058;-74
2022/08/11 04:12:46;;;;;;;6.38;4.47;;;19.00;99.90;;;;;;5031758;28;25102;-72
2022/08/11 04:15:59;;;;;;;7.15;4.60;;;19.00;99.90;;;;;;5034655;28;25061;-73
2022/08/11 04:18:41;;;;;;;6.32;4.07;;;19.00;99.90;;;;;;5038728;28;25145;-74
2022/08/11 04:21:25;;;;;;;7.88;4.50;;;18.90;99.90;;;;;;5029981;28;25054;-73
2022/08/11 04:24:40;;;;;;;6.60;4.35;;;19.00;99.90;;;;;;5040081;28;25121;-73
2022/08/11 04:27:08;;;;;;;11.77;4.30;;;19.00;99.90;;;;;;5012907;28;25150;-74
2022/08/11 04:29:43;;;;;;;10.15;5.18;;;19.00;99.90;;;;;;5037929;28;25138;-72
2022/08/11 04:32:14;;;;;;;8.57;4.10;;;19.00;99.90;;;;;;5035417;28;25079;-75
2022/08/11 04:34:47;;;;;;;11.95;4.95;;;18.80;99.90;;;;;;5042270;28;25071;-73
2022/08/11 04:37:34;;;;;;;6.53;4.47;;;18.70;99.90;;;;;;5043194;28;25052;-73
2022/08/11 04:40:27;;;;;;;7.68;4.88;;;18.70;99.90;;;;;;5028817;28;25172;-73
2022/08/11 04:43:20;;;;;;;7.63;4.70;;;18.80;99.90;;;;;;5041228;28;25086;-74
2022/08/11 04:46:13;;;;;;;7.25;4.63;;;18.70;99.90;;;;;;5034336;28;25160;-73
2022/08/11 05:07:30;;;;;;;10.40;5.13;;;18.90;99.90;;;;;;5041152;28;25116;-75
2022/08/11 05:10:22;;;;;;;8.43;5.10;;;18.80;99.90;;;;;;5034493;28;25075;-75
2022/08/11 05:12:47;;;;;;;6.15;4.60;;;18.70;99.90;;;;;;5003922;28;25079;-73
2022/08/11 05:35:27;;;;;;;9.30;4.82;;;18.90;99.90;;;;;;5037345;28;25115;-73
2022/08/11 05:57:31;;;;;;;10.65;4.82;;;19.50;99.90;;;;;;5035691;28;25073;-73
2022/08/11 06:00:09;;;;;;;10.43;5.55;;;19.60;99.90;;;;;;5034185;28;25068;-73
2022/08/11 06:02:40;;;;;;;7.57;5.25;;;19.70;99.90;;;;;;5032703;28;25067;-73
2022/08/11 06:05:06;;;;;;;9.90;5.82;;;19.50;99.90;;;;;;5044425;28;25065;-73
2022/08/11 06:07:32;;;;;;;9.88;5.05;;;19.40;99.90;;;;;;5040881;28;25104;-73
2022/08/11 06:09:59;;;;;;;8.10;4.82;;;19.40;99.90;;;;;;5056481;28;25125;-75
2022/08/11 06:12:31;;;;;;;8.98;5.25;;;19.50;99.90;;;;;;5047720;28;25143;-73
2022/08/11 06:15:00;;;;;;;20.35;7.22;;;19.60;99.90;;;;;;5042841;28;25054;-72
2022/08/11 06:17:31;;;;;;;9.10;5.47;;;19.70;99.90;;;;;;5054015;28;25092;-73
2022/08/11 06:20:10;;;;;;;20.77;6.28;;;19.80;99.90;;;;;;5041157;28;25060;-73
2022/08/11 06:22:37;;;;;;;20.42;5.57;;;20.00;99.90;;;;;;5044082;28;25144;-73
2022/08/11 06:25:04;;;;;;;9.45;5.22;;;20.20;99.90;;;;;;5046792;28;25155;-73
2022/08/11 06:27:33;;;;;;;8.95;5.82;;;20.40;99.90;;;;;;5053203;28;25136;-72
2022/08/11 06:30:00;;;;;;;12.23;5.50;;;20.40;99.90;;;;;;5037032;28;25061;-73
2022/08/11 06:32:31;;;;;;;10.80;5.70;;;20.60;99.90;;;;;;5049910;28;25056;-74
2022/08/11 06:35:03;;;;;;;19.90;6.10;;;20.80;99.90;;;;;;5039113;28;25150;-74
2022/08/11 06:38:02;;;;;;;15.85;6.82;;;20.70;99.90;;;;;;5045498;28;25073;-74
2022/08/11 06:43:46;;;;;;;9.73;5.82;;;20.80;99.90;;;;;;5044384;28;25097;-73
2022/08/11 06:46:16;;;;;;;11.13;6.13;;;20.80;99.90;;;;;;5037601;28;25100;-74
2022/08/11 06:48:43;;;;;;;9.70;5.60;;;20.80;99.90;;;;;;5039851;28;25070;-74
2022/08/11 06:51:13;;;;;;;12.15;6.43;;;20.70;99.90;;;;;;5049171;28;25081;-73
2022/08/11 06:53:52;;;;;;;13.20;6.40;;;20.60;99.90;;;;;;5040032;28;25140;-73
2022/08/11 07:02:14;;;;;;;8.32;5.95;;;20.60;99.90;;;;;;5039431;28;25130;-73
2022/08/11 07:04:45;;;;;;;6.35;5.45;;;20.70;99.90;;;;;;5058405;28;25081;-73
2022/08/11 07:16:40;;;;;;;9.98;6.53;;;21.10;99.90;;;;;;5060037;28;25080;-73
2022/08/11 07:30:24;;;;;;;6.70;6.00;;;22.00;99.90;;;;;;5043008;28;25147;-72
2022/08/11 07:32:53;;;;;;;8.52;5.72;;;22.20;99.90;;;;;;5042450;28;25056;-75
2022/08/11 07:35:42;;;;;;;8.93;6.07;;;22.40;99.90;;;;;;5042970;28;25068;-74
2022/08/11 07:38:17;;;;;;;8.35;5.30;;;22.60;99.90;;;;;;5042256;28;25092;-73
2022/08/11 07:40:45;;;;;;;10.45;5.90;;;22.60;99.90;;;;;;5041287;28;25103;-74
2022/08/11 07:43:12;;;;;;;10.23;5.90;;;23.00;99.90;;;;;;5046890;28;25099;-72
2022/08/11 07:54:06;;;;;;;8.32;4.75;;;24.00;99.90;;;;;;5040697;28;25061;-73
2022/08/11 07:56:34;;;;;;;10.30;5.88;;;24.20;99.90;;;;;;5041155;28;25114;-73
2022/08/11 08:18:23;;;;;;;7.22;4.57;;;25.40;99.90;;;;;;5043081;28;25072;-71
2022/08/11 08:20:50;;;;;;;9.20;4.60;;;25.80;99.90;;;;;;5032020;28;25077;-72
2022/08/11 08:23:31;;;;;;;6.22;4.32;;;25.90;99.90;;;;;;5033704;28;25114;-72
2022/08/11 08:26:00;;;;;;;6.93;4.30;;;26.00;99.90;;;;;;5035375;28;25067;-72
2022/08/11 08:28:26;;;;;;;5.13;3.95;;;25.80;99.90;;;;;;5036790;28;25139;-72
2022/08/11 08:30:55;;;;;;;7.93;4.03;;;26.00;99.90;;;;;;5033257;28;25076;-73
2022/08/11 08:33:29;;;;;;;6.18;3.60;;;25.90;99.90;;;;;;5033361;28;25061;-73
2022/08/11 08:36:10;;;;;;;6.80;3.70;;;25.90;99.90;;;;;;5039777;28;25052;-72
2022/08/11 08:38:47;;;;;;;9.17;4.37;;;26.20;99.90;;;;;;5038689;28;25098;-75
2022/08/11 08:41:18;;;;;;;6.75;3.03;;;26.30;99.90;;;;;;5045003;28;25055;-72
2022/08/11 08:43:49;;;;;;;5.47;2.47;;;26.40;99.90;;;;;;5042110;28;25067;-72
2022/08/11 08:46:20;;;;;;;12.38;3.42;;;26.20;99.90;;;;;;5032720;28;25138;-72
2022/08/11 08:48:47;;;;;;;9.80;3.35;;;26.70;99.90;;;;;;5038748;28;25097;-74
2022/08/11 08:54:06;;;;;;;6.72;3.42;;;27.00;99.90;;;;;;5032638;28;25077;-71
2022/08/11 08:56:34;;;;;;;11.68;3.97;;;27.50;99.90;;;;;;5044631;28;25085;-72
2022/08/11 08:59:01;;;;;;;6.68;3.00;;;27.40;97.60;;;;;;5038584;28;25064;-72
2022/08/11 09:01:34;;;;;;;3.97;3.00;;;27.90;98.70;;;;;;5050610;28;25097;-73
2022/08/11 09:04:02;;;;;;;8.40;2.90;;;28.30;95.40;;;;;;5068056;28;25071;-74
2022/08/11 09:06:30;;;;;;;4.28;3.17;;;27.90;71.10;;;;;;5041303;28;25052;-73
2022/08/11 09:08:56;;;;;;;4.78;2.80;;;28.00;72.20;;;;;;5034877;28;25170;-73
2022/08/11 09:14:08;;;;;;;5.68;3.10;;;28.30;84.00;;;;;;5032194;28;25081;-73
2022/08/11 09:16:35;;;;;;;5.68;3.20;;;28.30;70.30;;;;;;5034874;28;25056;-73
2022/08/11 09:19:02;;;;;;;6.07;2.80;;;28.40;63.60;;;;;;5035408;28;25066;-74
2022/08/11 09:21:30;;;;;;;7.20;3.10;;;28.30;64.50;;;;;;5032224;28;25099;-74
2022/08/11 09:26:58;;;;;;;7.40;3.17;;;28.30;55.80;;;;;;5036035;28;25054;-72
2022/08/11 09:29:24;;;;;;;;;;;28.50;64.70;;;;;;5026857;28;25032;-73
2022/08/11 09:31:52;;;;;;;11.02;2.60;;;28.80;35.70;;;;;;5038640;28;24074;-73
2022/08/11 09:34:18;;;;;;;5.50;2.70;;;28.90;31.20;;;;;;5029224;28;25065;-73
2022/08/11 09:42:16;;;;;;;5.15;2.58;;;29.20;25.90;;;;;;5038447;28;25051;-72
2022/08/11 09:44:46;;;;;;;7.88;2.70;;;29.50;15.20;;;;;;5038757;28;25128;-72
2022/08/11 09:47:18;;;;;;;6.65;2.97;;;29.70;4.40;;;;;;5035291;28;25098;-73
2022/08/11 09:49:45;;;;;;;7.82;2.78;;;29.50;1.00;;;;;;5041826;28;25091;-72
2022/08/11 09:52:13;;;;;;;7.10;2.40;;;29.80;1.00;;;;;;5045361;28;25100;-73
2022/08/11 09:54:45;;;;;;;5.20;2.70;;;29.20;1.00;;;;;;5038557;28;25109;-72
2022/08/11 09:59:56;;;;;;;3.50;2.28;;;28.70;8.20;;;;;;5037309;28;25077;-73
2022/08/11 10:02:27;;;;;;;7.70;3.00;;;29.20;9.20;;;;;;5042362;28;25101;-70
2022/08/11 10:07:49;;;;;;;5.60;2.70;;;29.40;1.00;;;;;;5042184;28;25063;-74
2022/08/11 10:10:21;;;;;;;6.00;2.33;;;29.00;1.00;;;;;;5047947;28;25157;-75
2022/08/11 10:12:50;;;;;;;4.97;2.65;;;29.40;1.00;;;;;;5056877;28;25127;-74
2022/08/11 10:15:33;;;;;;;6.05;2.80;;;29.20;1.00;;;;;;5052608;28;25045;-72
2022/08/11 10:21:09;;;;;;;8.25;2.45;;;29.40;1.00;;;;;;5046634;28;25082;-74
2022/08/11 10:34:44;;;;;;;6.25;2.80;;;30.50;1.00;;;;;;5050560;28;25067;-75
2022/08/11 10:37:11;;;;;;;3.85;2.35;;;30.30;1.00;;;;;;5059152;28;25049;-74
2022/08/11 10:39:38;;;;;;;13.18;2.90;;;30.30;1.00;;;;;;5038442;28;25102;-75
2022/08/11 10:44:52;;;;;;;6.82;2.47;;;31.10;99.90;;;;;;5043494;28;25061;-73
2022/08/11 10:47:33;;;;;;;2.53;2.15;;;31.30;99.90;;;;;;5046009;28;25133;-75
2022/08/11 11:01:10;;;;;;;4.78;2.10;;;32.40;99.90;;;;;;5037170;28;25045;-76
2022/08/11 11:03:36;;;;;;;4.53;2.33;;;32.30;99.90;;;;;;5049455;28;25123;-75
2022/08/11 11:06:24;;;;;;;8.30;2.20;;;32.10;99.90;;;;;;5044644;28;25054;-75
2022/08/11 11:08:55;;;;;;;6.80;2.80;;;32.00;99.90;;;;;;5035267;28;25058;-74
2022/08/11 11:19:40;;;;;;;3.65;2.20;;;32.20;99.90;;;;;;5041698;28;25130;-75
2022/08/11 11:25:04;;;;;;;3.00;2.28;;;32.90;99.90;;;;;;5036901;28;25117;-74
2022/08/11 11:27:55;;;;;;;3.00;2.30;;;33.00;99.90;;;;;;5032098;28;25053;-76
2022/08/11 11:30:26;;;;;;;10.13;2.22;;;33.10;99.90;;;;;;5038887;28;25125;-75
2022/08/11 11:33:19;;;;;;;3.78;2.10;;;32.70;99.90;;;;;;5034253;28;25069;-75
2022/08/11 11:36:18;;;;;;;7.82;2.45;;;33.40;99.90;;;;;;5033572;28;25057;-77
2022/08/11 11:38:44;;;;;;;3.90;1.95;;;33.00;99.90;;;;;;5043817;28;25082;-74
2022/08/11 11:41:25;;;;;;;5.40;2.17;;;32.80;99.90;;;;;;5047481;28;25057;-76
2022/08/11 11:43:56;;;;;;;3.97;2.08;;;32.10;99.90;;;;;;5030874;28;25076;-74
2022/08/11 11:46:25;;;;;;;6.78;2.38;;;32.20;99.90;;;;;;5044129;28;25162;-72
2022/08/11 11:48:52;;;;;;;5.15;2.50;;;32.50;99.90;;;;;;5047722;28;25106;-73
2022/08/11 11:51:20;;;;;;;5.80;2.45;;;32.50;99.90;;;;;;5038005;28;25082;-74
2022/08/11 11:53:46;;;;;;;17.00;2.28;;;33.40;99.90;;;;;;5044443;28;25052;-73
2022/08/11 11:56:13;;;;;;;5.28;2.30;;;34.00;99.90;;;;;;5050297;28;25098;-75
2022/08/11 12:01:24;;;;;;;4.00;2.42;;;34.10;99.90;;;;;;5056765;28;25058;-77
2022/08/11 12:03:52;;;;;;;5.28;2.33;;;32.30;99.90;;;;;;5065677;22;25053;-62
2022/08/11 12:06:21;;;;;;;6.18;2.78;;;31.80;99.90;;;;;;5058609;28;25072;-63
2022/08/11 12:08:49;;;;;;;8.82;2.80;;;32.00;99.90;;;;;;5050195;28;25092;-62
2022/08/11 12:14:03;;;;;;;5.75;2.17;;;31.90;99.90;;;;;;5046713;28;25072;-63
2022/08/11 12:16:30;;;;;;;5.65;2.95;;;32.60;99.90;;;;;;5052274;28;25055;-65
2022/08/11 12:19:00;;;;;;;4.05;2.60;;;33.00;99.90;;;;;;5058856;28;25107;-63
2022/08/11 12:21:27;;;;;;;4.82;2.60;;;32.60;99.90;;;;;;5057308;28;25141;-62
2022/08/11 12:29:27;;;;;;;2.88;2.30;;;32.40;99.90;;;;;;5046127;28;25076;-63
2022/08/11 12:31:57;;;;;;;8.35;2.28;;;32.40;99.90;;;;;;5046687;28;25141;-63
2022/08/11 12:34:26;;;;;;;5.90;2.30;;;32.80;99.90;;;;;;5049783;28;25065;-62
2022/08/11 12:37:04;;;;;;;6.45;2.50;;;33.20;99.90;;;;;;5057016;28;25053;-63
2022/08/11 12:45:29;;;;;;;5.80;2.40;;;33.80;99.90;;;;;;5050332;28;25139;-63
2022/08/11 12:54:13;;;;;;;4.57;2.40;;;32.80;99.90;;;;;;5047465;28;25170;-65
2022/08/11 13:05:06;;;;;;;5.57;2.70;;;32.40;99.90;;;;;;5048929;28;25096;-62
2022/08/11 13:07:32;;;;;;;7.18;2.17;;;31.90;99.90;;;;;;5059091;28;25049;-63
2022/08/11 13:10:01;;;;;;;4.80;2.58;;;32.10;99.90;;;;;;5042481;28;25142;-62
2022/08/11 13:12:47;;;;;;;4.90;2.83;;;32.10;99.90;;;;;;5044599;28;25132;-62
2022/08/11 13:15:23;;;;;;;3.58;2.63;;;32.20;99.90;;;;;;5042296;28;25094;-62
2022/08/11 13:17:50;;;;;;;7.82;2.50;;;32.10;99.90;;;;;;5059344;28;25139;-63
2022/08/11 13:20:19;;;;;;;11.02;2.63;;;32.10;99.90;;;;;;5042381;28;25070;-62
2022/08/11 13:22:48;;;;;;;5.72;2.50;;;32.30;99.90;;;;;;5049819;28;25062;-63
2022/08/11 13:25:16;;;;;;;3.28;2.70;;;32.10;99.90;;;;;;5043753;28;25080;-62
2022/08/11 13:27:44;;;;;;;6.13;2.47;;;31.40;99.90;;;;;;5053763;28;25128;-61
2022/08/11 13:32:55;;;;;;;6.55;2.53;;;31.10;99.90;;;;;;5047210;28;25057;-62
2022/08/11 13:35:21;;;;;;;6.53;2.50;;;31.50;99.90;;;;;;5060593;28;25094;-61
2022/08/11 13:37:49;;;;;;;5.28;2.60;;;31.50;99.90;;;;;;5062823;28;25162;-62
2022/08/11 13:40:17;;;;;;;2.38;2.17;;;31.40;99.90;;;;;;5061335;28;25069;-63
2022/08/11 13:42:43;;;;;;;5.75;2.38;;;31.20;99.90;;;;;;5051188;28;25070;-62
2022/08/11 13:45:09;;;;;;;5.68;2.20;;;31.20;99.90;;;;;;5052412;28;25051;-62
2022/08/11 13:47:37;;;;;;;5.47;2.25;;;31.20;99.90;;;;;;5059059;28;25076;-62
2022/08/11 13:50:05;;;;;;;3.58;2.10;;;31.10;99.90;;;;;;5059579;28;25156;-61
2022/08/11 13:52:32;;;;;;;7.03;2.40;;;31.00;99.90;;;;;;5060556;28;25079;-62
2022/08/11 13:54:58;;;;;;;4.85;2.47;;;30.70;99.90;;;;;;5061858;28;25072;-63
2022/08/11 13:57:24;;;;;;;8.13;2.63;;;30.70;99.90;;;;;;5057658;28;25159;-63
2022/08/11 14:00:08;;;;;;;4.15;2.90;;;30.90;99.90;;;;;;5059162;28;25079;-62
2022/08/11 14:02:36;;;;;;;5.32;2.88;;;30.90;99.90;;;;;;5053953;28;25056;-63
2022/08/11 14:05:08;;;;;;;5.78;2.30;;;30.60;99.90;;;;;;5051098;28;25071;-62
2022/08/11 14:07:40;;;;;;;4.63;2.30;;;30.40;99.90;;;;;;5050274;28;25144;-64
2022/08/11 14:10:07;;;;;;;4.32;2.50;;;30.30;99.90;;;;;;5063690;28;25127;-63
2022/08/11 14:15:27;;;;;;;3.38;2.50;;;30.40;99.90;;;;;;5057607;28;25129;-62
2022/08/11 14:18:02;;;;;;;5.20;2.00;;;30.80;99.90;;;;;;5058362;28;25061;-62
2022/08/11 14:23:15;;;;;;;7.07;2.13;;;30.70;99.90;;;;;;5064387;28;25099;-63
2022/08/11 14:26:22;;;;;;;5.10;2.58;;;30.70;99.90;;;;;;5065859;28;25053;-63
2022/08/11 14:28:30;;;;;;;5.65;2.30;;;30.70;99.90;;;;;;5065443;28;25094;-64
2022/08/11 14:30:56;;;;;;;7.40;3.10;;;30.40;99.90;;;;;;5050923;28;25052;-63
2022/08/11 14:33:22;;;;;;;8.10;2.35;;;30.20;99.90;;;;;;5051022;28;25074;-63
2022/08/11 14:35:48;;;;;;;7.07;2.50;;;30.20;99.90;;;;;;5055508;28;25057;-62
2022/08/11 14:38:14;;;;;;;2.45;2.25;;;30.40;99.90;;;;;;5056264;28;25136;-62
2022/08/11 14:48:55;;;;;;;5.28;2.15;;;30.40;99.90;;;;;;5058287;28;25054;-62
2022/08/11 14:51:22;;;;;;;6.70;2.10;;;30.40;99.90;;;;;;5060253;28;25058;-62
2022/08/11 14:56:34;;;;;;;5.03;2.17;;;30.50;99.90;;;;;;5059461;28;25108;-62
2022/08/11 14:56:36;;;;;;;6.50;2.13;;;30.50;99.90;;;;;;5057235;28;25080;-62
2022/08/11 14:59:02;;;;;;;6.57;2.15;;;30.60;99.90;;;;;;5056811;28;25072;-63
2022/08/11 15:04:12;;;;;;;5.07;1.92;;;30.60;99.90;;;;;;5053170;28;25108;-61
2022/08/11 15:06:38;;;;;;;7.32;2.05;;;30.60;99.90;;;;;;5059668;28;25129;-63
2022/08/11 15:09:05;;;;;;;5.75;2.50;;;30.70;99.90;;;;;;5051489;28;25151;-63
2022/08/11 15:17:06;;;;;;;4.30;1.77;;;30.60;99.90;;;;;;5051145;28;25074;-62
2022/08/11 15:17:09;;;;;;;2.80;1.80;;;30.80;99.90;;;;;;5048749;28;25060;-61
2022/08/11 15:19:35;;;;;;;;;;;30.90;99.90;;;;;;5061465;28;25127;-62
2022/08/11 15:24:45;;;;;;;4.55;2.00;;;30.80;99.90;;;;;;5051262;28;25047;-62
2022/08/11 15:38:22;;;;;;;6.60;2.33;;;30.70;99.90;;;;;;5065756;28;25132;-62
2022/08/11 15:46:46;;;;;;;3.40;2.15;;;30.70;99.90;;;;;;5051186;28;25087;-62
2022/08/11 15:49:16;;;;;;;3.70;2.10;;;30.60;99.90;;;;;;5056197;28;25107;-62
2022/08/11 15:51:51;;;;;;;3.83;1.90;;;30.60;99.90;;;;;;5055069;28;25069;-63
2022/08/11 15:54:22;;;;;;;8.05;2.53;;;30.70;99.90;;;;;;5053655;28;25054;-63
2022/08/11 15:56:50;;;;;;;2.80;2.08;;;30.70;99.90;;;;;;5054255;28;25139;-63
2022/08/11 16:04:48;;;;;;;3.28;1.70;;;30.60;99.90;;;;;;5052682;28;25058;-63
2022/08/11 16:07:26;;;;;;;4.18;2.08;;;30.60;99.90;;;;;;5045284;28;25099;-63
2022/08/11 16:09:56;;;;;;;2.33;2.10;;;30.50;99.90;;;;;;5051749;28;25089;-64
2022/08/11 16:12:27;;;;;;;5.97;2.17;;;30.50;99.90;;;;;;5047412;28;25146;-63
2022/08/11 16:17:45;;;;;;;6.50;2.00;;;30.50;99.90;;;;;;5052194;28;25057;-61
2022/08/11 16:20:14;;;;;;;4.10;2.13;;;30.50;99.90;;;;;;5053189;28;25064;-63
2022/08/11 16:22:43;;;;;;;2.80;2.10;;;30.50;99.90;;;;;;5048410;28;25064;-64
2022/08/11 16:25:11;;;;;;;3.05;1.90;;;30.50;99.90;;;;;;5050960;28;25048;-63
2022/08/11 16:27:45;;;;;;;6.50;2.03;;;30.40;99.90;;;;;;5052959;28;25096;-62
2022/08/11 16:30:13;;;;;;;6.43;2.00;;;30.40;99.90;;;;;;5054652;28;25055;-63
2022/08/11 16:32:42;;;;;;;4.03;2.33;;;30.50;99.90;;;;;;5058084;28;25072;-62
2022/08/11 16:40:51;;;;;;;4.60;1.65;;;30.60;99.90;;;;;;5045390;28;25105;-63
2022/08/11 16:48:53;;;;;;;2.47;1.85;;;29.90;1.00;;;;;;5047710;28;25058;-62
2022/08/11 16:51:19;;;;;;;9.45;2.00;;;29.70;1.00;;;;;;5046028;28;25097;-62
2022/08/11 16:53:47;;;;;;;4.32;1.73;;;29.60;1.00;;;;;;5050124;28;25057;-63
2022/08/11 16:56:18;;;;;;;3.38;2.10;;;29.70;1.00;;;;;;5050767;28;25077;-61
2022/08/11 17:01:33;;;;;;;3.53;2.05;;;30.00;1.00;;;;;;5051592;28;25077;-62
2022/08/11 17:13:09;;;;;;;4.97;2.03;;;29.50;1.00;;;;;;5053483;28;25092;-62
2022/08/11 17:21:29;;;;;;;5.63;2.40;;;29.10;1.00;;;;;;5050167;28;25140;-62
2022/08/11 17:24:01;;;;;;;6.85;1.60;;;29.10;1.00;;;;;;5054285;28;25116;-61
2022/08/11 17:29:23;;;;;;;3.80;1.60;;;29.10;1.00;;;;;;5057219;28;25065;-61
2022/08/11 17:37:21;;;;;;;2.42;2.00;;;28.90;1.00;;;;;;5061305;28;25106;-62
2022/08/11 17:39:48;;;;;;;4.40;1.90;;;28.90;1.00;;;;;;5062028;28;25099;-62
2022/08/11 17:50:31;;;;;;;6.47;1.85;;;28.90;6.70;;;;;;5054666;28;25144;-62
2022/08/11 18:01:14;;;;;;;4.15;1.80;;;28.50;27.70;;;;;;5051375;28;25062;-63
2022/08/11 18:03:42;;;;;;;3.30;1.65;;;28.40;31.50;;;;;;5053025;28;25073;-64
2022/08/11 18:06:11;;;;;;;3.50;2.17;;;28.40;33.20;;;;;;5055609;28;25108;-63
